Time;durP1;ratioP1;P1;durP2;ratioP2;P2;SDS_P1;SDS_P2;PMS_P1;PMS_P2;Temp;Humidity;BMP_temperature;BMP_pressure;BME280_temperature;BME280_humidity;BME280_pressure;Samples;Min_cycle;Max_cycle;Signal;HPM_P1;HPM_P2
2024/01/18 00:00:27;;;;;;;17.4;11.2;;;;;;;3.27;100;913.8083;;;;
2024/01/18 00:02:51;;;;;;;18.2;11.2;;;;;;;3.38;100;913.823;;;;
2024/01/18 00:05:21;;;;;;;15.7;10;;;;;;;3.43;100;913.8403;;;;
2024/01/18 00:07:50;;;;;;;14.9;9.6;;;;;;;3.35;100;913.8914;;;;
2024/01/18 00:10:15;;;;;;;12.9;8.2;;;;;;;3.38;100;913.878;;;;
2024/01/18 00:12:45;;;;;;;12.7;8.2;;;;;;;3.34;100;913.8994;;;;
2024/01/18 00:15:15;;;;;;;15;9.2;;;;;;;3.33;100;913.8821;;;;
2024/01/18 00:17:44;;;;;;;18;10.9;;;;;;;3.33;100;913.8868;;;;
2024/01/18 00:20:09;;;;;;;15.5;9.5;;;;;;;3.32;100;913.9191;;;;
2024/01/18 00:22:35;;;;;;;18.4;11.7;;;;;;;3.32;100;913.8876;;;;
2024/01/18 00:25:03;;;;;;;37.1;19.7;;;;;;;3.31;100;913.9309;;;;
2024/01/18 00:27:28;;;;;;;33.5;19.1;;;;;;;3.3;100;913.9105;;;;
2024/01/18 00:29:56;;;;;;;26.4;14.7;;;;;;;3.28;100;913.9074;;;;
2024/01/18 00:32:22;;;;;;;11.2;7.4;;;;;;;3.31;100;913.9411;;;;
2024/01/18 00:34:46;;;;;;;17.4;9.7;;;;;;;3.29;100;913.9789;;;;
2024/01/18 00:37:11;;;;;;;8.8;5.7;;;;;;;3.34;100;913.8923;;;;
2024/01/18 00:39:44;;;;;;;6.8;4.3;;;;;;;3.31;100;914.0308;;;;
2024/01/18 00:42:18;;;;;;;6.9;3.7;;;;;;;3.42;100;914.0464;;;;
2024/01/18 00:44:43;;;;;;;6.1;3.9;;;;;;;3.4;100;913.9369;;;;
2024/01/18 00:47:13;;;;;;;6.9;4.5;;;;;;;3.36;100;914.04;;;;
2024/01/18 00:49:38;;;;;;;9.4;5.7;;;;;;;3.34;100;914.0197;;;;
2024/01/18 00:52:05;;;;;;;9.9;7.3;;;;;;;3.35;100;914.0078;;;;
2024/01/18 00:54:30;;;;;;;11.5;9;;;;;;;3.36;100;914.084;;;;
2024/01/18 00:56:56;;;;;;;12.7;8;;;;;;;3.37;100;914.0597;;;;
2024/01/18 00:59:21;;;;;;;13;7.9;;;;;;;3.37;100;914.1588;;;;
2024/01/18 01:01:49;;;;;;;14;7.7;;;;;;;3.34;100;914.1636;;;;
2024/01/18 01:04:22;;;;;;;9.7;6.3;;;;;;;3.38;100;914.2586;;;;
2024/01/18 01:06:48;;;;;;;15.4;8.9;;;;;;;3.28;100;914.2125;;;;
2024/01/18 01:09:18;;;;;;;15;8.6;;;;;;;3.28;100;914.1638;;;;
2024/01/18 01:12:01;;;;;;;16.3;10.2;;;;;;;3.33;100;914.2344;;;;
2024/01/18 01:14:28;;;;;;;20.5;11.7;;;;;;;3.3;100;914.2864;;;;
2024/01/18 01:16:57;;;;;;;19.4;10.8;;;;;;;3.27;100;914.3541;;;;
2024/01/18 01:19:35;;;;;;;18.8;11.3;;;;;;;3.25;100;914.4517;;;;
2024/01/18 01:22:08;;;;;;;16.4;9.7;;;;;;;3.23;100;914.4556;;;;
2024/01/18 01:24:38;;;;;;;13.6;8.6;;;;;;;3.26;100;914.5405;;;;
2024/01/18 01:27:09;;;;;;;11.7;7.3;;;;;;;3.31;100;914.5592;;;;
2024/01/18 01:29:36;;;;;;;12.1;7;;;;;;;3.38;100;914.5889;;;;
2024/01/18 01:32:23;;;;;;;12.2;7.5;;;;;;;3.34;100;914.6456;;;;
2024/01/18 01:35:07;;;;;;;10.9;7;;;;;;;3.34;100;914.6739;;;;
2024/01/18 01:37:42;;;;;;;11.5;7.3;;;;;;;3.35;100;914.7062;;;;
2024/01/18 01:40:13;;;;;;;11.9;7.2;;;;;;;3.35;100;914.6716;;;;
2024/01/18 01:42:47;;;;;;;12.7;7.6;;;;;;;3.34;100;914.7023;;;;
2024/01/18 01:45:21;;;;;;;12.8;8.3;;;;;;;3.33;100;914.777;;;;
2024/01/18 01:48:07;;;;;;;14.5;9.3;;;;;;;3.32;100;914.8006;;;;
2024/01/18 01:50:46;;;;;;;13.2;9.7;;;;;;;3.34;100;914.8053;;;;
2024/01/18 01:53:30;;;;;;;12.4;8.1;;;;;;;3.32;100;914.8651;;;;
2024/01/18 01:56:18;;;;;;;8.2;5.4;;;;;;;3.29;100;914.7983;;;;
2024/01/18 01:58:50;;;;;;;6;4;;;;;;;3.28;100;914.8337;;;;
2024/01/18 02:01:21;;;;;;;5.7;3.8;;;;;;;3.28;100;914.8298;;;;
2024/01/18 02:03:47;;;;;;;4.7;3.6;;;;;;;3.33;100;914.7833;;;;
2024/01/18 02:06:12;;;;;;;4.2;3.3;;;;;;;3.33;100;914.7817;;;;
2024/01/18 02:08:38;;;;;;;5.6;3.6;;;;;;;3.36;100;914.7974;;;;
2024/01/18 02:11:03;;;;;;;3.4;2.9;;;;;;;3.4;100;914.6329;;;;
2024/01/18 02:13:30;;;;;;;5.2;3.5;;;;;;;3.44;100;914.7196;;;;
2024/01/18 02:15:58;;;;;;;5.3;3.5;;;;;;;3.47;100;914.7478;;;;
2024/01/18 02:18:26;;;;;;;4.7;3.5;;;;;;;3.52;100;914.7256;;;;
2024/01/18 02:20:54;;;;;;;4.5;3.3;;;;;;;3.53;100;914.6903;;;;
2024/01/18 02:23:24;;;;;;;4.6;3.1;;;;;;;3.55;100;914.6997;;;;
2024/01/18 02:25:49;;;;;;;4.5;3.2;;;;;;;3.54;100;914.669;;;;
2024/01/18 02:28:23;;;;;;;5.3;3.5;;;;;;;3.53;100;914.6548;;;;
2024/01/18 02:30:51;;;;;;;5;3.9;;;;;;;3.6;100;914.7286;;;;
2024/01/18 02:33:24;;;;;;;5.8;4.4;;;;;;;3.59;100;914.6917;;;;
2024/01/18 02:35:56;;;;;;;8.3;4.7;;;;;;;3.65;100;914.7751;;;;
2024/01/18 02:38:28;;;;;;;5.6;4.1;;;;;;;3.65;100;914.7492;;;;
2024/01/18 02:41:02;;;;;;;6.6;4.5;;;;;;;3.62;100;914.7665;;;;
2024/01/18 02:43:37;;;;;;;5.9;4;;;;;;;3.74;100;914.7277;;;;
2024/01/18 02:46:12;;;;;;;6;4.1;;;;;;;3.71;100;914.6404;;;;
2024/01/18 02:48:44;;;;;;;5.1;3.7;;;;;;;3.8;100;914.6071;;;;
2024/01/18 02:51:09;;;;;;;5.3;3.6;;;;;;;3.78;100;914.6024;;;;
2024/01/18 02:53:37;;;;;;;6.4;3.8;;;;;;;3.74;100;914.5435;;;;
2024/01/18 02:56:02;;;;;;;5.6;3.7;;;;;;;3.69;100;914.5563;;;;
2024/01/18 02:58:32;;;;;;;5.2;3.9;;;;;;;3.65;100;914.5714;;;;
2024/01/18 03:01:04;;;;;;;5.8;4.6;;;;;;;3.64;100;914.6077;;;;
2024/01/18 03:03:29;;;;;;;7.7;7;;;;;;;3.71;100;914.5633;;;;
2024/01/18 03:05:54;;;;;;;5.2;4.5;;;;;;;3.75;100;914.5081;;;;
2024/01/18 03:08:29;;;;;;;3.6;3;;;;;;;3.77;100;914.375;;;;
2024/01/18 03:10:54;;;;;;;2.8;2.5;;;;;;;3.81;100;914.2531;;;;
2024/01/18 03:13:20;;;;;;;3.7;2.2;;;;;;;3.86;100;914.3339;;;;
2024/01/18 03:15:45;;;;;;;3.1;2.4;;;;;;;3.89;100;914.2402;;;;
2024/01/18 03:18:13;;;;;;;2.3;2.1;;;;;;;3.93;100;914.2045;;;;
2024/01/18 03:20:38;;;;;;;4.5;3;;;;;;;3.99;100;914.1177;;;;
2024/01/18 03:23:04;;;;;;;3.3;2.8;;;;;;;3.86;100;914.0852;;;;
2024/01/18 03:25:37;;;;;;;3.3;2.8;;;;;;;3.83;100;914.0831;;;;
2024/01/18 03:28:02;;;;;;;2.7;2.5;;;;;;;3.76;100;914.0619;;;;
2024/01/18 03:30:31;;;;;;;3.9;3;;;;;;;3.82;100;914.0248;;;;
2024/01/18 03:33:08;;;;;;;3.9;3;;;;;;;3.8;100;914.0084;;;;
2024/01/18 03:35:34;;;;;;;4;3.6;;;;;;;3.82;100;913.9745;;;;
2024/01/18 03:37:59;;;;;;;5.2;3.4;;;;;;;3.87;100;913.9475;;;;
2024/01/18 03:40:28;;;;;;;3.1;2.2;;;;;;;3.92;100;913.9582;;;;
2024/01/18 03:42:58;;;;;;;5.7;2.8;;;;;;;3.94;100;913.9691;;;;
2024/01/18 03:45:31;;;;;;;5;3.2;;;;;;;3.98;100;913.9263;;;;
2024/01/18 03:48:04;;;;;;;4.1;3.1;;;;;;;3.99;100;913.9177;;;;
2024/01/18 03:50:35;;;;;;;4.8;3.4;;;;;;;3.95;100;913.9077;;;;
2024/01/18 03:53:00;;;;;;;5.3;3.2;;;;;;;3.87;100;913.9899;;;;
2024/01/18 03:55:30;;;;;;;4.4;2.8;;;;;;;3.87;100;913.9703;;;;
2024/01/18 03:58:03;;;;;;;3;2.6;;;;;;;3.82;100;913.9453;;;;
2024/01/18 04:02:34;;;;;;;2.7;2.4;;;;;;;3.8;100;914.0884;;;;
2024/01/18 04:04:58;;;;;;;3.6;2.7;;;;;;;3.87;100;914.1064;;;;
2024/01/18 04:07:30;;;;;;;3.3;2.4;;;;;;;3.88;100;914.2009;;;;
2024/01/18 04:09:59;;;;;;;2.5;2.3;;;;;;;3.87;100;914.1458;;;;
2024/01/18 04:12:25;;;;;;;2.4;2;;;;;;;3.87;100;914.1049;;;;
2024/01/18 04:14:50;;;;;;;3.4;2.4;;;;;;;3.89;100;914.185;;;;
2024/01/18 04:17:15;;;;;;;4.7;3.1;;;;;;;3.84;100;914.1987;;;;
2024/01/18 04:19:40;;;;;;;6.4;3.5;;;;;;;3.95;100;914.1934;;;;
2024/01/18 04:22:05;;;;;;;7.2;3.8;;;;;;;3.88;100;914.13;;;;
2024/01/18 04:24:33;;;;;;;4.3;3.3;;;;;;;3.92;100;914.1117;;;;
2024/01/18 04:27:03;;;;;;;5.2;2.8;;;;;;;3.91;100;914.081;;;;
2024/01/18 04:29:29;;;;;;;4;2.6;;;;;;;3.95;100;914.1509;;;;
2024/01/18 04:31:57;;;;;;;3.7;2.4;;;;;;;3.98;100;914.2074;;;;
2024/01/18 04:34:22;;;;;;;3;2.4;;;;;;;3.96;100;914.2894;;;;
2024/01/18 04:36:47;;;;;;;2.8;2.3;;;;;;;3.86;100;914.2954;;;;
2024/01/18 04:39:18;;;;;;;4.6;2.8;;;;;;;3.85;100;914.2034;;;;
2024/01/18 04:41:46;;;;;;;4.4;2.7;;;;;;;3.81;100;914.2751;;;;
2024/01/18 04:44:11;;;;;;;4.5;3.3;;;;;;;3.73;100;914.2704;;;;
2024/01/18 04:46:39;;;;;;;5.1;3.5;;;;;;;3.7;100;914.3541;;;;
2024/01/18 04:49:05;;;;;;;4.3;3;;;;;;;3.68;100;914.3431;;;;
2024/01/18 04:51:33;;;;;;;4.2;3.3;;;;;;;3.71;100;914.3328;;;;
2024/01/18 04:53:59;;;;;;;4.4;3.5;;;;;;;3.64;100;914.2976;;;;
2024/01/18 04:56:23;;;;;;;4.4;3.3;;;;;;;3.57;100;914.2708;;;;
2024/01/18 04:58:55;;;;;;;3.6;3.2;;;;;;;3.51;100;914.0618;;;;
2024/01/18 05:01:23;;;;;;;3.8;3;;;;;;;3.61;100;914.1152;;;;
2024/01/18 05:03:48;;;;;;;3.7;2.8;;;;;;;3.51;100;914.1799;;;;
2024/01/18 05:06:16;;;;;;;3.4;2.8;;;;;;;3.53;100;914.1089;;;;
2024/01/18 05:08:41;;;;;;;3.2;2.7;;;;;;;3.54;100;914.1152;;;;
2024/01/18 05:11:10;;;;;;;5;3.4;;;;;;;3.59;100;913.9963;;;;
2024/01/18 05:13:35;;;;;;;4.9;4.2;;;;;;;3.59;100;913.861;;;;
2024/01/18 05:16:01;;;;;;;8.2;4.9;;;;;;;3.6;100;913.9437;;;;
2024/01/18 05:18:25;;;;;;;8.9;5.2;;;;;;;3.68;100;913.8254;;;;
2024/01/18 05:20:54;;;;;;;7.6;4;;;;;;;3.7;100;913.7734;;;;
2024/01/18 05:23:23;;;;;;;6.7;4.2;;;;;;;3.75;100;913.7338;;;;
2024/01/18 05:25:49;;;;;;;7;3.5;;;;;;;3.73;100;913.6606;;;;
2024/01/18 05:28:15;;;;;;;7.4;4.5;;;;;;;3.73;100;913.8361;;;;
2024/01/18 05:30:43;;;;;;;8.1;5.1;;;;;;;3.71;100;913.8512;;;;
2024/01/18 05:33:09;;;;;;;7.5;5.5;;;;;;;3.62;100;913.8917;;;;
2024/01/18 05:35:36;;;;;;;6.9;5.1;;;;;;;3.57;100;913.8948;;;;
2024/01/18 05:38:03;;;;;;;9.8;5.5;;;;;;;3.53;100;913.998;;;;
2024/01/18 05:40:28;;;;;;;9.2;5.5;;;;;;;3.47;100;913.9731;;;;
2024/01/18 05:42:53;;;;;;;7.2;5;;;;;;;3.53;100;913.954;;;;
2024/01/18 05:45:25;;;;;;;5.9;4;;;;;;;3.48;100;913.8591;;;;
2024/01/18 05:47:56;;;;;;;4.2;3.2;;;;;;;3.61;100;913.8839;;;;
2024/01/18 05:50:21;;;;;;;4.5;3.2;;;;;;;3.61;100;913.8406;;;;
2024/01/18 05:52:46;;;;;;;5.3;3.8;;;;;;;3.56;100;913.9641;;;;
2024/01/18 05:55:19;;;;;;;5.6;4.1;;;;;;;3.51;100;913.9305;;;;
2024/01/18 05:57:51;;;;;;;6.6;4.2;;;;;;;3.44;100;914.033;;;;
2024/01/18 06:00:16;;;;;;;5.9;4.3;;;;;;;3.42;100;913.9411;;;;
2024/01/18 06:02:45;;;;;;;7.3;4.3;;;;;;;3.57;100;913.8365;;;;
2024/01/18 06:05:11;;;;;;;6.9;5;;;;;;;3.54;100;913.8533;;;;
2024/01/18 06:07:38;;;;;;;8.5;6.2;;;;;;;3.55;100;913.9083;;;;
2024/01/18 06:10:04;;;;;;;11.5;8.1;;;;;;;3.59;100;913.8066;;;;
2024/01/18 06:12:34;;;;;;;8.7;6.9;;;;;;;3.56;100;913.7274;;;;
2024/01/18 06:14:58;;;;;;;8.4;6.2;;;;;;;3.45;100;913.7828;;;;
2024/01/18 06:17:30;;;;;;;9.6;7.3;;;;;;;3.44;100;913.764;;;;
2024/01/18 06:19:54;;;;;;;13.6;9.5;;;;;;;3.46;100;913.6602;;;;
2024/01/18 06:22:25;;;;;;;10.8;8.5;;;;;;;3.44;100;913.7576;;;;
2024/01/18 06:24:55;;;;;;;9.2;6.7;;;;;;;3.33;100;913.7531;;;;
2024/01/18 06:27:27;;;;;;;9.5;6.4;;;;;;;3.32;100;913.8042;;;;
2024/01/18 06:29:57;;;;;;;6.4;5;;;;;;;3.34;100;913.7389;;;;
2024/01/18 06:32:21;;;;;;;5.7;3.7;;;;;;;3.38;100;913.7805;;;;
2024/01/18 06:34:48;;;;;;;4.1;3.4;;;;;;;3.38;100;913.694;;;;
2024/01/18 06:37:13;;;;;;;5.1;3.8;;;;;;;3.29;100;913.6511;;;;
2024/01/18 06:39:38;;;;;;;6.1;3.7;;;;;;;3.33;100;913.7335;;;;
2024/01/18 06:42:07;;;;;;;3.9;3.5;;;;;;;3.33;100;913.6611;;;;
2024/01/18 06:44:28;;;;;;;6.6;4.5;;;;;;;3.4;100;913.7505;;;;
2024/01/18 06:46:56;;;;;;;36.6;18.1;;;;;;;3.47;100;913.7183;;;;
2024/01/18 06:49:21;;;;;;;39.6;21.4;;;;;;;3.54;100;913.6605;;;;
2024/01/18 06:51:50;;;;;;;20.8;14.5;;;;;;;3.59;100;913.6037;;;;
2024/01/18 06:54:21;;;;;;;15.1;10.5;;;;;;;3.53;100;913.6378;;;;
2024/01/18 06:56:47;;;;;;;11.5;7.8;;;;;;;3.44;100;913.5485;;;;
2024/01/18 06:59:12;;;;;;;15.1;8.1;;;;;;;3.42;100;913.6682;;;;
2024/01/18 07:01:38;;;;;;;15.1;8.3;;;;;;;3.35;100;913.6147;;;;
2024/01/18 07:04:03;;;;;;;10.8;7.8;;;;;;;3.58;100;913.6839;;;;
2024/01/18 07:06:29;;;;;;;12.8;7.8;;;;;;;3.46;100;913.7867;;;;
2024/01/18 07:08:59;;;;;;;13.2;8.7;;;;;;;3.41;100;913.8145;;;;
2024/01/18 07:11:24;;;;;;;12.3;8.2;;;;;;;3.52;100;913.7637;;;;
2024/01/18 07:13:55;;;;;;;11.5;7.8;;;;;;;3.4;100;913.5829;;;;
2024/01/18 07:16:25;;;;;;;9.5;6.4;;;;;;;3.4;100;913.7025;;;;
2024/01/18 07:18:50;;;;;;;12;7.2;;;;;;;3.51;100;913.5914;;;;
2024/01/18 07:21:17;;;;;;;11.2;7.5;;;;;;;3.5;100;913.7881;;;;
2024/01/18 07:23:43;;;;;;;10.1;7.5;;;;;;;3.56;100;913.7155;;;;
2024/01/18 07:26:11;;;;;;;13.2;8.1;;;;;;;3.61;100;913.6707;;;;
2024/01/18 07:28:37;;;;;;;14.3;8.2;;;;;;;3.71;100;913.704;;;;
2024/01/18 07:31:03;;;;;;;12;9;;;;;;;3.66;100;913.7467;;;;
2024/01/18 07:33:34;;;;;;;12.5;8.2;;;;;;;3.71;100;913.8016;;;;
2024/01/18 07:35:59;;;;;;;12.2;7.9;;;;;;;3.67;100;913.7979;;;;
2024/01/18 07:38:27;;;;;;;10.6;7.6;;;;;;;3.76;100;913.9186;;;;
2024/01/18 07:40:52;;;;;;;10.5;7.3;;;;;;;3.77;100;913.8462;;;;
2024/01/18 07:43:22;;;;;;;10.8;8.3;;;;;;;3.81;100;913.8219;;;;
2024/01/18 07:45:49;;;;;;;12.1;8.4;;;;;;;3.87;100;913.8759;;;;
2024/01/18 07:48:17;;;;;;;14.8;10.6;;;;;;;3.83;100;913.8273;;;;
2024/01/18 07:50:43;;;;;;;14.5;10.8;;;;;;;3.79;100;913.9539;;;;
2024/01/18 07:53:11;;;;;;;13.3;10.2;;;;;;;3.73;100;913.9196;;;;
2024/01/18 07:55:35;;;;;;;13.6;8.3;;;;;;;3.76;100;913.8911;;;;
2024/01/18 07:58:06;;;;;;;9.9;6.7;;;;;;;3.81;100;913.8518;;;;
2024/01/18 08:00:30;;;;;;;11;6.5;;;;;;;3.92;100;913.8394;;;;
2024/01/18 08:02:59;;;;;;;8.1;6.2;;;;;;;3.94;100;913.9101;;;;
2024/01/18 08:05:27;;;;;;;10.6;7;;;;;;;3.99;100;913.9224;;;;
2024/01/18 08:07:49;;;;;;;13.3;9;;;;;;;4.01;100;913.9706;;;;
2024/01/18 08:10:19;;;;;;;11.1;8.4;;;;;;;4.03;100;914.0956;;;;
2024/01/18 08:12:44;;;;;;;12;9.2;;;;;;;4.03;100;913.9847;;;;
2024/01/18 08:15:13;;;;;;;13.3;9.4;;;;;;;4.13;100;914.0147;;;;
2024/01/18 08:17:38;;;;;;;12.2;8.7;;;;;;;4.07;100;913.9238;;;;
2024/01/18 08:20:12;;;;;;;11.7;8.7;;;;;;;4.08;100;914.0048;;;;
2024/01/18 08:22:36;;;;;;;25.4;17.2;;;;;;;4.14;100;913.973;;;;
2024/01/18 08:25:01;;;;;;;21.6;13.7;;;;;;;4.24;100;913.9813;;;;
2024/01/18 08:27:37;;;;;;;20.8;12.6;;;;;;;4.26;100;913.9244;;;;
2024/01/18 08:30:03;;;;;;;15.8;10.7;;;;;;;4.26;100;913.9858;;;;
2024/01/18 08:32:31;;;;;;;20.3;13;;;;;;;4.28;100;913.9291;;;;
2024/01/18 08:34:55;;;;;;;24;15.3;;;;;;;4.3;100;913.8903;;;;
2024/01/18 08:37:24;;;;;;;23;15.1;;;;;;;4.33;100;913.9673;;;;
2024/01/18 08:39:49;;;;;;;18.9;12.3;;;;;;;4.28;100;913.8848;;;;
2024/01/18 08:42:14;;;;;;;14.1;10.1;;;;;;;4.3;100;913.817;;;;
2024/01/18 08:44:45;;;;;;;11.4;8.1;;;;;;;4.42;100;913.8172;;;;
2024/01/18 08:47:07;;;;;;;9.8;7.7;;;;;;;4.4;100;913.793;;;;
2024/01/18 08:49:38;;;;;;;13.6;8.7;;;;;;;4.52;100;913.7092;;;;
2024/01/18 08:52:06;;;;;;;11.4;7.6;;;;;;;4.45;100;913.7769;;;;
2024/01/18 08:54:33;;;;;;;11.7;7.5;;;;;;;4.62;100;913.7671;;;;
2024/01/18 08:56:58;;;;;;;10.5;7.5;;;;;;;4.68;100;913.7555;;;;
2024/01/18 08:59:26;;;;;;;13.6;8.4;;;;;;;4.86;100;913.7369;;;;
2024/01/18 09:01:51;;;;;;;11.3;8.2;;;;;;;4.9;100;913.7168;;;;
2024/01/18 09:04:17;;;;;;;11.4;9.3;;;;;;;5.24;100;913.702;;;;
2024/01/18 09:06:42;;;;;;;10.8;7.5;;;;;;;5.45;100;913.6472;;;;
2024/01/18 09:09:11;;;;;;;9.1;6.7;;;;;;;5.66;100;913.626;;;;
2024/01/18 09:11:41;;;;;;;10.8;4.9;;;;;;;5.74;100;913.6897;;;;
2024/01/18 09:14:10;;;;;;;8;5.7;;;;;;;5.92;99.92188;913.7668;;;;
2024/01/18 09:16:35;;;;;;;11.2;7.9;;;;;;;6.05;99.5791;913.8604;;;;
2024/01/18 09:19:00;;;;;;;14.1;8.3;;;;;;;6.08;99.3252;913.9191;;;;
2024/01/18 09:21:27;;;;;;;13.4;7.7;;;;;;;6.12;99.44824;913.9921;;;;
2024/01/18 09:23:52;;;;;;;17.5;11.2;;;;;;;6.14;99.09082;913.9342;;;;
2024/01/18 09:26:25;;;;;;;28;15.6;;;;;;;6.29;99.04785;914.0295;;;;
2024/01/18 09:28:49;;;;;;;27.6;14.5;;;;;;;6.22;98.03613;914.1142;;;;
2024/01/18 09:31:16;;;;;;;24;13.5;;;;;;;6.16;97.53613;914.1922;;;;
2024/01/18 09:33:41;;;;;;;20.3;12.2;;;;;;;6.06;97.63965;914.2227;;;;
2024/01/18 09:36:10;;;;;;;17.1;11;;;;;;;6.08;98.00293;914.0803;;;;
2024/01/18 09:38:35;;;;;;;11.3;7.4;;;;;;;6.07;97.66406;914.1619;;;;
2024/01/18 09:41:00;;;;;;;7;5.5;;;;;;;6.1;97.65918;914.204;;;;
2024/01/18 09:43:28;;;;;;;8;5.2;;;;;;;6.16;98.56445;914.2048;;;;
2024/01/18 09:45:57;;;;;;;8.5;5.3;;;;;;;6.32;97.92285;914.2883;;;;
2024/01/18 09:48:22;;;;;;;7.9;5.7;;;;;;;6.33;96.96387;914.4027;;;;
2024/01/18 09:50:46;;;;;;;9.2;6.5;;;;;;;6.25;96.90234;914.4607;;;;
2024/01/18 09:53:15;;;;;;;12.4;7.7;;;;;;;6.29;96.62793;914.5762;;;;
2024/01/18 09:55:40;;;;;;;12;8.1;;;;;;;6.22;96.41992;914.5583;;;;
2024/01/18 09:58:07;;;;;;;11.6;7.6;;;;;;;6.18;97.08984;914.5261;;;;
2024/01/18 10:00:32;;;;;;;10.7;7.1;;;;;;;6.25;97.49023;914.5002;;;;
2024/01/18 10:02:57;;;;;;;8.6;5.8;;;;;;;6.29;98.22266;914.4364;;;;
2024/01/18 10:05:27;;;;;;;7.8;5.3;;;;;;;6.29;98.38086;914.3669;;;;
2024/01/18 10:07:58;;;;;;;9.2;5.9;;;;;;;6.31;97.45801;914.3713;;;;
2024/01/18 10:10:25;;;;;;;9.2;5.8;;;;;;;6.28;96.89746;914.3158;;;;
2024/01/18 10:12:50;;;;;;;9.5;5.7;;;;;;;6.22;96.60254;914.2999;;;;
2024/01/18 10:15:17;;;;;;;10.7;6.8;;;;;;;6.29;96.92188;914.3574;;;;
2024/01/18 10:17:42;;;;;;;13.4;9.7;;;;;;;6.46;97.13086;914.327;;;;
2024/01/18 10:20:13;;;;;;;9.8;6.5;;;;;;;6.83;96.70508;914.3362;;;;
2024/01/18 10:22:43;;;;;;;7.6;5.1;;;;;;;7.32;95.63672;914.2441;;;;
2024/01/18 10:25:07;;;;;;;5.3;3.5;;;;;;;7.43;92.73633;914.1324;;;;
2024/01/18 10:27:36;;;;;;;4.3;3.7;;;;;;;7.57;92.43848;914.1448;;;;
2024/01/18 10:30:01;;;;;;;3.6;3.1;;;;;;;8.09;92.80078;914.1275;;;;
2024/01/18 10:32:31;;;;;;;5.1;2.8;;;;;;;8.5;89.71582;913.9398;;;;
2024/01/18 10:34:56;;;;;;;4.1;2.8;;;;;;;8.5;87.26367;913.7938;;;;
2024/01/18 10:37:29;;;;;;;4.3;2.9;;;;;;;8.38;87.3418;913.8279;;;;
2024/01/18 10:39:58;;;;;;;4.7;2.5;;;;;;;8.44;87.44434;913.7969;;;;
2024/01/18 10:42:32;;;;;;;5.1;3.1;;;;;;;8.88;87.56836;913.7213;;;;
2024/01/18 10:44:57;;;;;;;10.8;5.6;;;;;;;9.39;85.92871;913.613;;;;
2024/01/18 10:47:22;;;;;;;4.5;2.3;;;;;;;9.52;85.26074;913.5781;;;;
2024/01/18 10:49:54;;;;;;;2.2;2;;;;;;;10.15;83.41016;913.4868;;;;
2024/01/18 10:52:19;;;;;;;3.7;2.1;;;;;;;10.79;81.61621;913.5406;;;;
2024/01/18 10:54:44;;;;;;;7;3.6;;;;;;;10.46;80.21777;913.5283;;;;
2024/01/18 10:57:12;;;;;;;7.2;4.8;;;;;;;10.37;80.64648;913.5062;;;;
2024/01/18 10:59:37;;;;;;;5.9;4.6;;;;;;;10.25;80.79492;913.4437;;;;
2024/01/18 11:02:08;;;;;;;6;3.9;;;;;;;10.32;79.6543;913.468;;;;
2024/01/18 11:04:37;;;;;;;8;4.3;;;;;;;10.2;80.48828;913.4065;;;;
2024/01/18 11:07:01;;;;;;;7.2;4.2;;;;;;;9.92;81.49707;913.3682;;;;
2024/01/18 11:09:27;;;;;;;5.2;3.3;;;;;;;9.94;81.73926;913.3748;;;;
2024/01/18 11:11:52;;;;;;;6.8;3.6;;;;;;;9.74;82.85352;913.3691;;;;
2024/01/18 11:14:17;;;;;;;5.7;3.4;;;;;;;9.65;82.53809;913.4694;;;;
2024/01/18 11:16:42;;;;;;;5.5;3;;;;;;;9.43;83.77539;913.4612;;;;
2024/01/18 11:19:08;;;;;;;6.2;2.7;;;;;;;9.33;84.07324;913.4906;;;;
2024/01/18 11:21:32;;;;;;;3.9;2.5;;;;;;;9.22;84.50586;913.3912;;;;
2024/01/18 11:24:00;;;;;;;3.4;2.5;;;;;;;9.18;84.43066;913.4666;;;;
2024/01/18 11:26:26;;;;;;;3.4;2.4;;;;;;;9.01;84.83984;913.5317;;;;
2024/01/18 11:28:53;;;;;;;3.5;2.6;;;;;;;8.81;85.10645;913.5499;;;;
2024/01/18 11:31:18;;;;;;;4.2;2.8;;;;;;;8.64;85.80371;913.5292;;;;
2024/01/18 11:33:45;;;;;;;4.5;2.8;;;;;;;8.47;86.66504;913.5709;;;;
2024/01/18 11:36:10;;;;;;;3.7;3;;;;;;;8.37;87.23633;913.6752;;;;
2024/01/18 11:38:36;;;;;;;5.2;3.1;;;;;;;8.31;87.94238;913.5937;;;;
2024/01/18 11:41:02;;;;;;;4.1;2.8;;;;;;;8.35;88.62988;913.5924;;;;
2024/01/18 11:43:30;;;;;;;6.1;3.9;;;;;;;8.32;88.7832;913.6031;;;;
2024/01/18 11:46:00;;;;;;;7.3;4.3;;;;;;;8.27;88.69238;913.6912;;;;
2024/01/18 11:48:26;;;;;;;9.4;5.5;;;;;;;8.29;88.62988;913.6941;;;;
2024/01/18 11:50:51;;;;;;;9.9;4.3;;;;;;;8.33;88.41016;913.8169;;;;
2024/01/18 11:53:19;;;;;;;6.2;4.3;;;;;;;8.24;88.73242;913.8688;;;;
2024/01/18 11:55:52;;;;;;;7.6;4.2;;;;;;;8.27;88.21582;913.7849;;;;
2024/01/18 11:58:17;;;;;;;6.2;3.8;;;;;;;8.24;88.2666;913.8164;;;;
2024/01/18 12:00:42;;;;;;;6.9;3.4;;;;;;;8.2;88.81348;913.7363;;;;
2024/01/18 12:03:09;;;;;;;9.2;5.2;;;;;;;8.08;89.52734;913.7506;;;;
2024/01/18 12:05:40;;;;;;;5.4;4.3;;;;;;;7.96;90.35449;913.7022;;;;
2024/01/18 12:08:04;;;;;;;6.6;3.9;;;;;;;7.92;91.18457;913.6887;;;;
2024/01/18 12:10:32;;;;;;;7;4.8;;;;;;;7.9;92.21582;913.716;;;;
2024/01/18 12:12:59;;;;;;;9.9;7;;;;;;;7.86;92.62598;913.7169;;;;
2024/01/18 12:15:24;;;;;;;10.1;6.9;;;;;;;7.82;92.78613;913.6964;;;;
2024/01/18 12:17:53;;;;;;;7.5;5.6;;;;;;;7.81;92.5459;913.7629;;;;
2024/01/18 12:20:21;;;;;;;9.1;4.5;;;;;;;7.79;92.70117;913.8677;;;;
2024/01/18 12:22:48;;;;;;;3.2;2.7;;;;;;;7.86;92.35352;913.8405;;;;
2024/01/18 12:25:20;;;;;;;4.6;2.7;;;;;;;7.88;92.56152;913.791;;;;
2024/01/18 12:27:50;;;;;;;3.2;2.3;;;;;;;8.01;92.33887;913.7495;;;;
2024/01/18 12:30:17;;;;;;;3.8;2.2;;;;;;;8.04;93.43457;913.6827;;;;
2024/01/18 12:32:48;;;;;;;4.2;2.9;;;;;;;8.02;93.88672;913.7375;;;;
2024/01/18 12:35:17;;;;;;;6.8;3.7;;;;;;;8.1;93.73438;913.808;;;;
2024/01/18 12:37:42;;;;;;;7.5;4.3;;;;;;;8.19;93.79688;913.7799;;;;
2024/01/18 12:40:14;;;;;;;8.8;4.5;;;;;;;8.25;93.20898;913.7236;;;;
2024/01/18 12:42:40;;;;;;;10.3;5.3;;;;;;;8.16;93.37305;913.7363;;;;
2024/01/18 12:45:07;;;;;;;10.8;5.4;;;;;;;8.19;93.35449;913.7324;;;;
2024/01/18 12:47:36;;;;;;;12.1;6.8;;;;;;;8.28;93.46484;913.715;;;;
2024/01/18 12:50:01;;;;;;;13.8;8.9;;;;;;;8.37;93.88379;913.6577;;;;
2024/01/18 12:52:33;;;;;;;12.9;9;;;;;;;8.38;93.19238;913.5765;;;;
2024/01/18 12:55:02;;;;;;;14.3;9;;;;;;;8.41;92.50586;913.5636;;;;
2024/01/18 12:57:31;;;;;;;14.5;10.1;;;;;;;8.53;92.46289;913.5641;;;;
2024/01/18 12:59:56;;;;;;;11.6;7.2;;;;;;;8.66;92.36523;913.5073;;;;
2024/01/18 13:02:29;;;;;;;9.5;6;;;;;;;8.85;92.52148;913.5062;;;;
2024/01/18 13:04:58;;;;;;;9.6;6.3;;;;;;;8.89;91.35742;913.6124;;;;
2024/01/18 13:07:29;;;;;;;12;8.5;;;;;;;8.71;91.1709;913.6085;;;;
2024/01/18 13:09:55;;;;;;;20;11.5;;;;;;;8.7;90.97656;913.5848;;;;
2024/01/18 13:12:19;;;;;;;24.5;13.4;;;;;;;8.68;91.14063;913.6537;;;;
2024/01/18 13:14:52;;;;;;;20.1;11.3;;;;;;;8.66;91.07031;913.558;;;;
2024/01/18 13:17:17;;;;;;;12.7;7.9;;;;;;;8.73;91.25488;913.5857;;;;
2024/01/18 13:19:47;;;;;;;12.4;8;;;;;;;8.79;90.83398;913.5677;;;;
2024/01/18 13:22:12;;;;;;;11.1;6.3;;;;;;;8.72;91.01563;913.6019;;;;
2024/01/18 13:24:37;;;;;;;9.1;6.3;;;;;;;8.67;90.76563;913.6459;;;;
2024/01/18 13:27:08;;;;;;;8.2;6.1;;;;;;;8.64;91.31543;913.6331;;;;
2024/01/18 13:29:33;;;;;;;11.3;6.5;;;;;;;8.63;91.5293;913.6127;;;;
2024/01/18 13:32:01;;;;;;;11.1;7;;;;;;;8.59;91.18066;913.6379;;;;
2024/01/18 13:34:30;;;;;;;9.6;5.7;;;;;;;8.61;91.19531;913.6314;;;;
2024/01/18 13:37:00;;;;;;;11.7;7.2;;;;;;;8.77;91.04785;913.6434;;;;
2024/01/18 13:39:25;;;;;;;12.8;8;;;;;;;8.66;90.72754;913.6881;;;;
2024/01/18 13:41:54;;;;;;;13.5;9.4;;;;;;;8.6;90.97754;913.6552;;;;
2024/01/18 13:44:25;;;;;;;13;8.8;;;;;;;8.53;90.64453;913.6559;;;;
2024/01/18 13:46:54;;;;;;;12.8;8.6;;;;;;;8.41;90.91309;913.5983;;;;
2024/01/18 13:49:20;;;;;;;14.6;8.5;;;;;;;8.35;91.35645;913.7241;;;;
2024/01/18 13:51:50;;;;;;;15.2;9.3;;;;;;;8.25;92.03906;913.7805;;;;
2024/01/18 13:54:13;;;;;;;17;10.5;;;;;;;8.18;93.18359;913.8364;;;;
2024/01/18 13:56:41;;;;;;;16.9;10.6;;;;;;;8.13;93.41016;913.9524;;;;
2024/01/18 13:59:09;;;;;;;17.9;8.6;;;;;;;8.06;93.34961;913.9571;;;;
2024/01/18 14:01:33;;;;;;;12.9;8.1;;;;;;;7.93;93.45801;913.9183;;;;
2024/01/18 14:04:00;;;;;;;12.7;7.2;;;;;;;7.81;94.22461;914.1274;;;;
2024/01/18 14:06:26;;;;;;;11.5;7.1;;;;;;;7.71;94.57715;914.1671;;;;
2024/01/18 14:08:51;;;;;;;9.9;8.5;;;;;;;7.64;95.00586;914.1462;;;;
2024/01/18 14:11:19;;;;;;;13.3;9.8;;;;;;;7.59;95.39063;914.2166;;;;
2024/01/18 14:13:44;;;;;;;14.5;10.1;;;;;;;7.58;95.58203;914.1312;;;;
2024/01/18 14:16:16;;;;;;;12.2;9.5;;;;;;;7.48;94.96973;914.3063;;;;
2024/01/18 14:18:47;;;;;;;11;6.9;;;;;;;7.5;95.49512;914.4003;;;;
2024/01/18 14:21:16;;;;;;;10.4;7;;;;;;;7.35;95.51758;914.3606;;;;
2024/01/18 14:23:47;;;;;;;14.2;9.2;;;;;;;7.41;95.98535;914.3979;;;;
2024/01/18 14:26:14;;;;;;;13.4;10.9;;;;;;;7.37;96.66895;914.5471;;;;
2024/01/18 14:28:37;;;;;;;14.2;10.8;;;;;;;7.36;97.3125;914.7444;;;;
2024/01/18 14:31:06;;;;;;;13.7;10.3;;;;;;;7.34;97.20508;914.8611;;;;
2024/01/18 14:33:35;;;;;;;12.5;8.4;;;;;;;7.39;97.44141;914.7629;;;;
2024/01/18 14:36:01;;;;;;;16.8;12.3;;;;;;;7.19;96.62793;914.7136;;;;
2024/01/18 14:38:29;;;;;;;16.8;12.2;;;;;;;7.22;96.77051;914.8758;;;;
2024/01/18 14:40:54;;;;;;;24.2;14.4;;;;;;;7.2;97.21973;914.8844;;;;
2024/01/18 14:43:26;;;;;;;39.4;22.9;;;;;;;7.2;97.13965;914.8283;;;;
2024/01/18 14:45:54;;;;;;;40.7;22.7;;;;;;;7.19;97.35156;914.8269;;;;
2024/01/18 14:48:19;;;;;;;51.1;29.7;;;;;;;7.17;97.25879;914.8786;;;;
2024/01/18 14:50:46;;;;;;;20.8;13.6;;;;;;;7.09;97.77246;914.8419;;;;
2024/01/18 14:53:13;;;;;;;17.2;12.8;;;;;;;7.23;97.78027;914.8368;;;;
2024/01/18 14:55:40;;;;;;;17.7;11.8;;;;;;;7.13;98.03223;914.9528;;;;
2024/01/18 14:58:06;;;;;;;16.5;12.6;;;;;;;7.05;97.7168;915.038;;;;
2024/01/18 15:00:37;;;;;;;20.5;13.9;;;;;;;7.03;96.76172;915.0905;;;;
2024/01/18 15:03:05;;;;;;;23.4;15.9;;;;;;;6.91;96.9502;915.1219;;;;
2024/01/18 15:05:30;;;;;;;28.3;19.1;;;;;;;6.85;97.39941;915.1364;;;;
2024/01/18 15:07:59;;;;;;;30;21;;;;;;;6.91;97.64941;915.2549;;;;
2024/01/18 15:11:37;;;;;;;27.4;18.9;;;;;;;6.86;97.16406;915.2991;;;;
2024/01/18 15:14:03;;;;;;;24.8;18.8;;;;;;;6.81;97.35742;915.2935;;;;
2024/01/18 15:16:28;;;;;;;18.5;13.7;;;;;;;6.78;97.40625;915.2383;;;;